Time;durP1;ratioP1;P1;durP2;ratioP2;P2;SDS_P1;SDS_P2;PMS_P1;PMS_P2;Temp;Humidity;BMP_temperature;BMP_pressure;BME280_temperature;BME280_humidity;BME280_pressure;Samples;Min_cycle;Max_cycle;Signal;HPM_P1;HPM_P2
2023/07/31 00:01:00;;;;;;;6.70;6.07;;;;;;;16.27;100.00;100712.69;6174357;23;20008;-70
2023/07/31 00:03:26;;;;;;;5.93;5.53;;;;;;;16.29;100.00;100710.75;6200164;23;20024;-69
2023/07/31 00:05:53;;;;;;;8.23;6.28;;;;;;;16.33;100.00;100730.75;6201171;23;20031;-70
2023/07/31 00:08:19;;;;;;;6.65;5.80;;;;;;;15.92;100.00;100657.97;6199161;23;20651;-70
2023/07/31 00:10:46;;;;;;;6.72;5.95;;;;;;;16.19;100.00;100707.97;6171014;23;20066;-69
2023/07/31 00:13:12;;;;;;;6.20;5.70;;;;;;;16.10;100.00;100688.34;6196073;23;20021;-69
2023/07/31 00:15:39;;;;;;;5.70;5.20;;;;;;;16.30;100.00;100728.34;6197309;23;20626;-70
2023/07/31 00:18:05;;;;;;;9.23;6.07;;;;;;;16.25;100.00;100717.25;6182950;23;20045;-70
2023/07/31 00:20:31;;;;;;;6.63;5.97;;;;;;;16.20;100.00;100704.38;6203551;23;20020;-70
2023/07/31 00:22:58;;;;;;;6.50;5.97;;;;;;;16.32;100.00;100711.38;6199841;23;20080;-69
2023/07/31 00:25:24;;;;;;;7.75;5.90;;;;;;;16.32;100.00;100714.03;6172266;23;20095;-70
2023/07/31 00:27:51;;;;;;;6.13;5.70;;;;;;;16.15;100.00;100682.69;6197077;23;20030;-71
2023/07/31 00:30:17;;;;;;;7.05;5.45;;;;;;;16.35;100.00;100719.06;6195549;23;20027;-70
2023/07/31 00:32:43;;;;;;;5.90;5.30;;;;;;;16.38;100.00;100706.56;6204516;23;20020;-70
2023/07/31 00:35:10;;;;;;;6.53;5.93;;;;;;;16.37;100.00;100704.88;6175875;23;20008;-69
2023/07/31 00:37:36;;;;;;;6.70;6.10;;;;;;;16.37;100.00;100707.53;6204106;23;20020;-69
2023/07/31 00:40:03;;;;;;;5.85;5.47;;;;;;;16.40;100.00;100696.69;6173044;23;20023;-69
2023/07/31 00:42:30;;;;;;;10.77;6.13;;;;;;;16.43;100.00;100693.81;6201343;23;20055;-70
2023/07/31 00:44:56;;;;;;;6.53;5.97;;;;;;;16.40;100.00;100680.78;6169304;23;20482;-69
2023/07/31 00:47:23;;;;;;;12.10;6.05;;;;;;;16.45;100.00;100689.25;6198531;23;20096;-70
2023/07/31 00:49:49;;;;;;;6.00;5.50;;;;;;;16.32;100.00;100682.25;6145426;23;20224;-69
2023/07/31 00:52:16;;;;;;;6.32;5.85;;;;;;;16.03;100.00;100617.44;6195605;23;20084;-69
2023/07/31 00:54:43;;;;;;;5.97;5.50;;;;;;;16.31;100.00;100656.72;6208397;23;20017;-70
2023/07/31 00:57:09;;;;;;;7.15;5.78;;;;;;;16.42;100.00;100679.75;6199871;23;20024;-70
2023/07/31 00:59:36;;;;;;;7.65;6.07;;;;;;;16.37;100.00;100673.94;6203698;23;20020;-70
2023/07/31 01:02:03;;;;;;;6.22;5.82;;;;;;;16.41;100.00;100670.09;6197891;23;20211;-70
2023/07/31 01:04:30;;;;;;;6.55;5.80;;;;;;;16.37;100.00;100652.75;6195077;23;20684;-70
2023/07/31 01:07:01;;;;;;;5.95;5.60;;;;;;;16.38;100.00;100641.22;6199162;23;20012;-70
2023/07/31 01:09:44;;;;;;;5.57;5.28;;;;;;;16.25;100.00;100633.34;6197412;23;20043;-74
2023/07/31 01:12:14;;;;;;;6.22;5.53;;;;;;;16.31;100.00;100654.06;6172492;23;20024;-69
2023/07/31 01:14:50;;;;;;;9.18;5.78;;;;;;;16.14;100.00;100633.34;6196738;23;21088;-70
2023/07/31 01:17:17;;;;;;;5.72;5.22;;;;;;;16.01;100.00;100614.06;6198941;23;20076;-70
2023/07/31 01:19:44;;;;;;;5.97;5.57;;;;;;;16.24;100.00;100641.44;6179764;23;20032;-69
2023/07/31 01:22:34;;;;;;;8.25;6.00;;;;;;;16.31;100.00;100640.81;6204836;23;20022;-69
2023/07/31 01:25:41;;;;;;;6.68;6.13;;;;;;;16.20;100.00;100627.59;6194583;23;20096;-69
2023/07/31 01:28:13;;;;;;;5.97;5.57;;;;;;;16.26;100.00;100632.41;6202851;23;20020;-70
2023/07/31 01:30:46;;;;;;;5.88;5.47;;;;;;;15.93;100.00;100591.66;6199791;23;20764;-69
2023/07/31 01:33:14;;;;;;;6.20;5.70;;;;;;;16.09;100.00;100614.31;6170426;23;20035;-70
2023/07/31 01:35:44;;;;;;;7.07;6.05;;;;;;;16.31;100.00;100632.03;6203720;23;20103;-70
2023/07/31 01:38:12;;;;;;;6.18;5.68;;;;;;;16.28;100.00;100621.69;6179480;23;20020;-70
2023/07/31 01:40:42;;;;;;;6.40;5.80;;;;;;;15.86;100.00;100549.94;6198593;23;20048;-69
2023/07/31 01:43:08;;;;;;;11.23;5.65;;;;;;;15.82;100.00;100551.97;6168453;23;20080;-70
2023/07/31 01:45:35;;;;;;;5.57;5.18;;;;;;;16.05;100.00;100563.41;6198367;23;20129;-69
2023/07/31 01:48:01;;;;;;;5.93;5.50;;;;;;;15.99;100.00;100555.09;6168801;23;20084;-70
2023/07/31 01:50:28;;;;;;;6.30;5.70;;;;;;;16.32;100.00;100605.44;6198203;23;20012;-70
2023/07/31 01:52:54;;;;;;;8.52;6.13;;;;;;;16.27;100.00;100610.25;6181015;23;20034;-70
2023/07/31 01:55:20;;;;;;;9.00;6.20;;;;;;;16.27;100.00;100612.88;6172578;23;20038;-71
2023/07/31 01:57:48;;;;;;;6.28;5.70;;;;;;;16.02;100.00;100578.72;6180808;23;20095;-69
2023/07/31 02:00:14;;;;;;;6.03;5.60;;;;;;;15.94;100.00;100574.84;6197774;23;20076;-70
2023/07/31 02:02:41;;;;;;;6.28;5.78;;;;;;;16.23;100.00;100622.03;6182961;23;20374;-71
2023/07/31 02:05:08;;;;;;;5.90;5.50;;;;;;;16.22;100.00;100627.47;6166900;23;20943;-70
2023/07/31 02:07:34;;;;;;;6.10;5.53;;;;;;;16.23;100.00;100631.78;6198972;23;20492;-70
2023/07/31 02:10:00;;;;;;;7.65;5.75;;;;;;;16.08;100.00;100615.28;6192559;23;20027;-69
2023/07/31 02:12:30;;;;;;;6.32;5.72;;;;;;;16.23;100.00;100614.09;6197025;23;20036;-70
2023/07/31 02:14:56;;;;;;;6.80;6.20;;;;;;;15.78;100.00;100549.69;6197276;23;20035;-70
2023/07/31 02:17:23;;;;;;;6.30;5.80;;;;;;;16.25;100.00;100622.75;6198718;23;20671;-71
2023/07/31 02:19:49;;;;;;;5.95;5.45;;;;;;;15.88;100.00;100559.44;6145012;23;20045;-70
2023/07/31 02:22:15;;;;;;;7.13;5.57;;;;;;;16.25;100.00;100630.72;6202776;23;20023;-69
2023/07/31 02:24:42;;;;;;;6.35;5.80;;;;;;;15.92;100.00;100579.41;6179881;23;20035;-69
2023/07/31 02:27:08;;;;;;;7.57;6.03;;;;;;;16.33;100.00;100630.13;6201333;23;20584;-69
2023/07/31 02:29:35;;;;;;;5.65;5.22;;;;;;;16.33;100.00;100643.34;6198161;23;20080;-69
2023/07/31 02:32:01;;;;;;;9.20;6.40;;;;;;;16.02;100.00;100586.66;6191875;23;20032;-69
2023/07/31 02:34:28;;;;;;;6.47;5.85;;;;;;;16.23;100.00;100629.97;6171583;23;20167;-69
2023/07/31 02:36:54;;;;;;;9.05;6.13;;;;;;;16.33;100.00;100646.84;6198909;23;20418;-69
2023/07/31 02:39:20;;;;;;;6.03;5.57;;;;;;;16.43;100.00;100640.84;6195612;23;20031;-69
2023/07/31 02:41:47;;;;;;;5.82;5.40;;;;;;;15.74;100.00;100526.09;6203044;23;20032;-69
2023/07/31 02:44:14;;;;;;;6.63;6.05;;;;;;;16.39;100.00;100629.63;6198391;23;20574;-70
2023/07/31 02:46:40;;;;;;;7.53;6.00;;;;;;;16.32;100.00;100602.81;6199825;23;20091;-69
2023/07/31 02:49:09;;;;;;;6.10;5.70;;;;;;;16.13;100.00;100568.13;6198060;23;20016;-69
2023/07/31 02:51:38;;;;;;;6.18;5.65;;;;;;;16.05;100.00;100565.22;6167021;23;20078;-69
2023/07/31 02:54:04;;;;;;;7.45;6.55;;;;;;;16.15;100.00;100564.38;6170379;23;20039;-69
2023/07/31 02:56:31;;;;;;;7.38;6.03;;;;;;;16.27;100.00;100590.88;6200982;23;20524;-68
2023/07/31 02:58:57;;;;;;;7.38;5.93;;;;;;;16.18;100.00;100568.63;6198436;23;20017;-69
2023/07/31 03:01:24;;;;;;;6.70;6.10;;;;;;;16.42;100.00;100600.28;6202878;23;20492;-69
2023/07/31 03:03:51;;;;;;;6.97;6.03;;;;;;;16.45;100.00;100601.84;6196889;23;20443;-69
2023/07/31 03:06:17;;;;;;;6.55;5.95;;;;;;;16.50;100.00;100607.63;6197385;23;20016;-69
2023/07/31 03:08:43;;;;;;;6.63;5.97;;;;;;;16.27;100.00;100570.53;6198390;23;20084;-69
2023/07/31 03:11:10;;;;;;;6.03;5.53;;;;;;;16.29;100.00;100565.94;6170209;23;20103;-71
2023/07/31 03:13:36;;;;;;;6.28;5.68;;;;;;;16.52;100.00;100603.06;6198983;23;20137;-69
2023/07/31 03:16:03;;;;;;;6.82;6.20;;;;;;;16.50;100.00;100573.19;6168542;23;20092;-71
2023/07/31 03:18:29;;;;;;;8.38;6.50;;;;;;;16.39;100.00;100566.06;6198109;23;20055;-70
2023/07/31 03:20:55;;;;;;;5.85;5.45;;;;;;;16.43;100.00;100577.28;6177018;23;20035;-69
2023/07/31 03:23:22;;;;;;;6.47;5.90;;;;;;;16.52;100.00;100593.28;6204345;23;20076;-69
2023/07/31 03:25:59;;;;;;;8.48;6.20;;;;;;;16.54;100.00;100590.53;6156937;23;20039;-69
2023/07/31 03:28:26;;;;;;;7.25;6.22;;;;;;;16.34;100.00;100562.97;6201337;23;20083;-69
2023/07/31 03:30:53;;;;;;;7.93;5.82;;;;;;;16.39;100.00;100584.63;6171912;23;20470;-69
2023/07/31 03:33:19;;;;;;;6.38;5.75;;;;;;;16.40;100.00;100588.09;6179669;23;20022;-69
2023/07/31 03:35:46;;;;;;;6.13;5.63;;;;;;;16.16;100.00;100557.31;6170751;23;20044;-68
2023/07/31 03:38:13;;;;;;;6.82;6.32;;;;;;;16.50;100.00;100621.72;6201656;23;21000;-69
2023/07/31 03:40:39;;;;;;;6.68;6.07;;;;;;;16.27;100.00;100599.66;6178382;23;20043;-69
2023/07/31 03:43:06;;;;;;;6.75;5.90;;;;;;;16.23;100.00;100594.72;6178144;23;20083;-70
2023/07/31 03:45:32;;;;;;;6.68;5.95;;;;;;;16.39;100.00;100621.69;6174149;23;20024;-69
2023/07/31 03:47:59;;;;;;;6.15;5.70;;;;;;;16.39;100.00;100626.16;6178214;23;20059;-69
2023/07/31 03:50:25;;;;;;;6.32;5.82;;;;;;;16.28;100.00;100619.88;6202417;23;20034;-69
2023/07/31 03:52:52;;;;;;;6.40;5.90;;;;;;;16.34;100.00;100631.81;6201065;23;20073;-70
2023/07/31 03:55:18;;;;;;;6.40;5.90;;;;;;;16.03;100.00;100575.09;6202149;23;20614;-70
2023/07/31 03:57:45;;;;;;;7.43;6.03;;;;;;;16.28;100.00;100605.81;6180031;23;20027;-68
2023/07/31 04:00:12;;;;;;;6.25;5.75;;;;;;;16.25;100.00;100596.28;6202485;23;20004;-70
2023/07/31 04:02:38;;;;;;;7.90;5.95;;;;;;;16.22;100.00;100587.75;6203396;23;20085;-70
2023/07/31 04:05:05;;;;;;;6.22;5.82;;;;;;;16.01;100.00;100550.53;6201580;23;20084;-70
2023/07/31 04:07:31;;;;;;;6.35;5.72;;;;;;;16.37;100.00;100612.19;6202105;23;20106;-70
2023/07/31 04:09:58;;;;;;;6.20;5.70;;;;;;;16.13;100.00;100565.47;6171320;23;20026;-71
2023/07/31 04:12:24;;;;;;;6.90;6.07;;;;;;;16.20;100.00;100569.34;6196437;23;20088;-69
2023/07/31 04:14:50;;;;;;;6.68;6.07;;;;;;;16.39;100.00;100597.03;6196103;22;20032;-70
2023/07/31 04:17:20;;;;;;;6.97;6.28;;;;;;;16.28;100.00;100582.81;6203000;23;20028;-70
2023/07/31 04:19:46;;;;;;;6.25;5.72;;;;;;;16.32;100.00;100573.66;6204026;23;20043;-70
2023/07/31 04:22:13;;;;;;;6.72;6.13;;;;;;;16.43;100.00;100594.00;6202787;23;20054;-70
2023/07/31 04:24:39;;;;;;;6.32;5.93;;;;;;;16.40;100.00;100593.41;6203354;23;20525;-70
2023/07/31 04:27:08;;;;;;;6.50;5.90;;;;;;;16.45;100.00;100591.25;6204362;23;20087;-69
2023/07/31 04:29:34;;;;;;;6.95;6.35;;;;;;;16.15;100.00;100545.84;6180361;23;20368;-69
2023/07/31 04:32:00;;;;;;;10.65;6.80;;;;;;;16.28;100.00;100576.69;6195736;22;20030;-69
2023/07/31 04:34:27;;;;;;;6.50;5.90;;;;;;;16.40;100.00;100593.41;6202111;23;21432;-70
2023/07/31 04:36:53;;;;;;;6.65;6.15;;;;;;;15.99;100.00;100532.13;6201021;23;20016;-69
2023/07/31 04:39:22;;;;;;;5.65;5.30;;;;;;;16.40;100.00;100586.31;6146785;23;20029;-69
2023/07/31 04:41:48;;;;;;;8.98;6.10;;;;;;;16.45;100.00;100594.72;6197088;23;20048;-70
2023/07/31 04:44:15;;;;;;;7.47;6.78;;;;;;;16.48;100.00;100591.00;6175087;23;20625;-69
2023/07/31 04:46:41;;;;;;;6.28;5.80;;;;;;;16.48;100.00;100588.38;6178401;23;20514;-69
2023/07/31 04:49:08;;;;;;;6.60;6.10;;;;;;;16.57;100.00;100597.38;6173481;23;20441;-69
2023/07/31 04:51:35;;;;;;;6.18;5.75;;;;;;;16.64;100.00;100591.47;6174119;23;20091;-69
2023/07/31 04:54:01;;;;;;;8.13;5.90;;;;;;;16.57;100.00;100555.81;6198917;23;20024;-69
2023/07/31 04:56:28;;;;;;;6.40;6.00;;;;;;;16.76;100.00;100573.75;6201793;23;20048;-69
2023/07/31 04:58:54;;;;;;;7.43;6.30;;;;;;;16.47;100.00;100504.53;6200269;23;20031;-69
2023/07/31 05:01:21;;;;;;;6.80;6.20;;;;;;;16.55;100.00;100496.81;6167585;23;20375;-68
2023/07/31 05:03:47;;;;;;;6.30;5.80;;;;;;;16.96;100.00;100543.03;6195121;23;20016;-69
2023/07/31 05:06:15;;;;;;;6.43;5.90;;;;;;;16.90;100.00;100524.97;6167863;23;20036;-69
2023/07/31 05:08:41;;;;;;;8.50;6.65;;;;;;;16.92;100.00;100489.41;6198612;23;20016;-69
2023/07/31 05:11:07;;;;;;;6.32;5.82;;;;;;;17.18;100.00;100515.59;6172117;23;20016;-69
2023/07/31 05:13:34;;;;;;;12.90;6.53;;;;;;;16.99;100.00;100463.22;6198890;23;20028;-69
2023/07/31 05:16:00;;;;;;;7.90;6.03;;;;;;;17.27;100.00;100487.44;6165742;23;20027;-69
2023/07/31 05:18:29;;;;;;;8.82;6.10;;;;;;;17.27;100.00;100490.09;6202131;23;20081;-69
2023/07/31 05:20:55;;;;;;;11.93;6.13;;;;;;;16.83;100.00;100389.44;6165149;23;20024;-70
2023/07/31 05:23:21;;;;;;;6.30;5.70;;;;;;;16.99;100.00;100404.06;6200953;23;20529;-69
2023/07/31 05:25:48;;;;;;;6.43;5.95;;;;;;;17.35;100.00;100455.81;6200405;23;20044;-69
2023/07/31 05:28:14;;;;;;;6.45;5.95;;;;;;;17.40;100.00;100450.09;6171047;23;20016;-70
2023/07/31 05:30:41;;;;;;;5.80;5.40;;;;;;;17.45;100.00;100422.22;6195905;23;20045;-70
2023/07/31 05:33:07;;;;;;;8.98;6.18;;;;;;;17.54;100.00;100415.31;6197749;23;20040;-70
2023/07/31 05:35:34;;;;;;;6.32;5.93;;;;;;;17.53;100.00;100413.59;6200290;23;20100;-69
2023/07/31 05:38:00;;;;;;;10.13;5.90;;;;;;;17.50;100.00;100404.09;6199315;23;20031;-70
2023/07/31 05:40:26;;;;;;;6.20;5.80;;;;;;;17.34;100.00;100367.44;6197493;23;20024;-69
2023/07/31 05:42:53;;;;;;;6.70;6.05;;;;;;;17.40;100.00;100379.34;6202091;23;20091;-69
2023/07/31 05:45:19;;;;;;;6.38;5.88;;;;;;;17.40;100.00;100382.00;6200406;23;20020;-69
2023/07/31 05:47:46;;;;;;;6.25;5.75;;;;;;;17.39;100.00;100374.16;6181966;23;20057;-69
2023/07/31 05:50:14;;;;;;;6.30;5.90;;;;;;;17.35;100.00;100370.94;6198757;23;20004;-69
2023/07/31 05:52:40;;;;;;;6.30;5.90;;;;;;;17.31;100.00;100374.81;6188347;23;20031;-69
2023/07/31 05:55:08;;;;;;;7.00;5.88;;;;;;;17.10;100.00;100354.47;6207958;23;20004;-69
2023/07/31 05:57:34;;;;;;;6.72;6.15;;;;;;;17.16;100.00;100371.69;6205215;23;20072;-69
2023/07/31 06:00:01;;;;;;;6.63;6.13;;;;;;;17.11;100.00;100387.97;6204422;23;20018;-69
2023/07/31 06:02:28;;;;;;;6.40;5.82;;;;;;;17.14;100.00;100408.09;6202874;23;20028;-69
2023/07/31 06:04:54;;;;;;;6.90;6.30;;;;;;;16.82;100.00;100387.78;6194088;23;20083;-69
2023/07/31 06:07:21;;;;;;;15.15;5.93;;;;;;;17.00;100.00;100434.91;6155509;23;20025;-69
2023/07/31 06:09:47;;;;;;;6.50;5.90;;;;;;;16.95;100.00;100465.28;6198769;23;20030;-70
2023/07/31 06:12:14;;;;;;;6.97;6.05;;;;;;;16.82;100.00;100456.69;6170961;23;20024;-69
2023/07/31 06:14:40;;;;;;;6.43;5.80;;;;;;;16.66;100.00;100435.88;6201396;23;20026;-69
2023/07/31 06:17:06;;;;;;;9.00;6.07;;;;;;;16.91;100.00;100482.41;6197968;23;20087;-69
2023/07/31 06:19:33;;;;;;;6.82;6.22;;;;;;;16.87;100.00;100491.59;6200476;23;20054;-69
2023/07/31 06:21:59;;;;;;;7.90;6.40;;;;;;;16.68;100.00;100465.72;6173947;23;20600;-70
2023/07/31 06:24:26;;;;;;;6.50;5.90;;;;;;;16.88;100.00;100493.28;6174841;23;20090;-69
2023/07/31 06:26:53;;;;;;;6.88;6.00;;;;;;;16.74;100.00;100459.09;6200901;23;20054;-69
2023/07/31 06:29:19;;;;;;;6.38;5.93;;;;;;;17.00;100.00;100490.56;6171033;23;20016;-69
2023/07/31 06:31:45;;;;;;;6.30;5.70;;;;;;;17.07;100.00;100494.41;6201626;22;20088;-68
2023/07/31 06:34:12;;;;;;;6.50;6.00;;;;;;;17.06;100.00;100475.00;6196681;23;20091;-69
2023/07/31 06:36:38;;;;;;;6.85;6.28;;;;;;;17.19;100.00;100481.94;6181484;23;20027;-69
2023/07/31 06:39:05;;;;;;;6.25;5.60;;;;;;;17.21;100.00;100474.69;6176102;23;20108;-69
2023/07/31 06:41:32;;;;;;;6.78;6.03;;;;;;;17.38;100.00;100476.78;6203355;23;20015;-70
2023/07/31 06:43:58;;;;;;;6.55;6.05;;;;;;;17.18;100.00;100429.88;6201479;23;20525;-69
2023/07/31 06:46:24;;;;;;;6.50;5.90;;;;;;;17.39;100.00;100446.63;6171026;23;20136;-71
2023/07/31 06:48:51;;;;;;;6.10;5.70;;;;;;;17.63;100.00;100464.91;6173815;23;20068;-71
2023/07/31 06:51:17;;;;;;;6.00;5.45;;;;;;;17.47;100.00;100414.13;6197933;23;20613;-75
2023/07/31 06:53:45;;;;;;;6.60;6.00;;;;;;;17.29;100.00;100356.38;6203307;23;20036;-71
2023/07/31 06:56:11;;;;;;;6.45;5.95;;;;;;;17.72;100.00;100412.84;6178325;23;20024;-69
2023/07/31 06:58:38;;;;;;;6.47;5.97;;;;;;;17.60;100.00;100376.75;6147088;23;20035;-70
2023/07/31 07:01:04;;;;;;;6.65;6.05;;;;;;;17.06;100.00;100292.06;6175959;23;20020;-70
2023/07/31 07:03:32;;;;;;;6.28;5.80;;;;;;;17.87;100.00;100414.19;6176232;23;20031;-69
2023/07/31 07:05:59;;;;;;;7.35;6.60;;;;;;;17.69;100.00;100382.09;6198900;23;20035;-69
2023/07/31 07:08:25;;;;;;;6.28;5.85;;;;;;;17.65;100.00;100359.47;6148676;23;20033;-69
2023/07/31 07:10:53;;;;;;;6.40;5.90;;;;;;;17.67;100.00;100367.31;6202373;23;20024;-69
2023/07/31 07:13:21;;;;;;;5.97;5.57;;;;;;;17.60;100.00;100360.84;6201682;23;20350;-69
2023/07/31 07:15:49;;;;;;;6.57;5.70;;;;;;;17.76;100.00;100403.66;6199360;23;20020;-69
2023/07/31 07:18:15;;;;;;;6.47;5.90;;;;;;;17.68;100.00;100399.03;6197792;23;20028;-69
2023/07/31 07:20:52;;;;;;;6.55;6.00;;;;;;;17.37;100.00;100361.03;6204237;23;20026;-69
2023/07/31 07:23:19;;;;;;;6.47;5.97;;;;;;;17.63;100.00;100419.81;6202021;23;20028;-69
2023/07/31 07:25:47;;;;;;;6.00;5.50;;;;;;;17.37;100.00;100376.94;6184011;23;20456;-68
2023/07/31 07:28:14;;;;;;;6.70;6.10;;;;;;;17.57;100.00;100422.97;6200882;23;20057;-69
2023/07/31 07:30:40;;;;;;;6.70;5.80;;;;;;;17.40;100.00;100432.41;6171131;23;20084;-69
2023/07/31 07:33:07;;;;;;;7.90;6.32;;;;;;;17.14;100.00;100366.50;6203869;23;20105;-69
2023/07/31 07:35:34;;;;;;;5.90;5.50;;;;;;;17.52;100.00;100447.28;6160971;23;20028;-70
2023/07/31 07:38:04;;;;;;;6.90;6.22;;;;;;;17.39;100.00;100456.41;6175708;23;20020;-69
2023/07/31 07:40:30;;;;;;;6.80;6.20;;;;;;;17.39;100.00;100473.16;6172613;23;20569;-69
2023/07/31 07:42:56;;;;;;;8.05;6.30;;;;;;;15.58;100.00;100175.56;6180910;23;20114;-71
2023/07/31 07:45:23;;;;;;;6.22;5.82;;;;;;;17.47;100.00;100476.00;6202981;23;20031;-70
2023/07/31 07:47:49;;;;;;;6.38;5.97;;;;;;;16.59;100.00;100333.16;6183359;23;20095;-71
2023/07/31 07:50:16;;;;;;;7.57;6.38;;;;;;;17.54;100.00;100471.03;6197436;23;20008;-72
2023/07/31 07:52:42;;;;;;;5.65;5.28;;;;;;;17.39;100.00;100451.09;6173555;23;20036;-71
2023/07/31 07:55:09;;;;;;;6.35;5.88;;;;;;;17.57;100.00;100451.34;6205322;23;20008;-70
2023/07/31 07:57:35;;;;;;;8.43;5.80;;;;;;;17.55;100.00;100452.28;6173378;23;20026;-71
2023/07/31 08:00:02;;;;;;;6.45;5.95;;;;;;;17.69;100.00;100460.91;6199940;23;20740;-71
2023/07/31 08:02:29;;;;;;;6.03;5.40;;;;;;;17.63;100.00;100467.56;6204029;23;20036;-71
2023/07/31 08:04:55;;;;;;;6.35;5.95;;;;;;;17.32;100.00;100421.59;6197169;23;20057;-70
2023/07/31 08:07:21;;;;;;;5.80;5.50;;;;;;;17.47;100.00;100453.94;6204391;23;20435;-72
2023/07/31 08:09:48;;;;;;;6.40;5.90;;;;;;;17.13;100.00;100393.97;6174431;23;20035;-72
2023/07/31 08:12:14;;;;;;;6.10;5.60;;;;;;;17.18;100.00;100377.69;6200317;23;20054;-70
2023/07/31 08:14:41;;;;;;;6.25;5.72;;;;;;;17.27;100.00;100373.41;6175787;23;20012;-70
2023/07/31 08:17:07;;;;;;;6.32;5.80;;;;;;;17.91;100.00;100434.19;6197424;23;20019;-73
2023/07/31 08:19:34;;;;;;;6.05;5.60;;;;;;;17.81;100.00;100387.34;6178958;23;20023;-70
2023/07/31 08:22:00;;;;;;;5.88;5.50;;;;;;;17.97;100.00;100387.69;6164768;23;20036;-71
2023/07/31 08:24:27;;;;;;;6.00;5.60;;;;;;;17.98;100.00;100372.59;6202241;23;20615;-71
2023/07/31 08:26:53;;;;;;;7.07;6.53;;;;;;;18.03;100.00;100354.44;6173780;23;20027;-71
2023/07/31 08:29:20;;;;;;;6.50;6.00;;;;;;;18.02;100.00;100364.25;6202493;23;20016;-72
2023/07/31 08:31:46;;;;;;;6.60;5.68;;;;;;;17.72;100.00;100322.59;6204320;23;20417;-71
2023/07/31 08:34:13;;;;;;;6.18;5.60;;;;;;;18.00;100.00;100346.75;6171053;23;20016;-72
2023/07/31 08:36:39;;;;;;;6.00;5.70;;;;;;;18.18;100.00;100345.13;6201612;23;20016;-73
2023/07/31 08:39:06;;;;;;;6.00;5.60;;;;;;;18.32;100.00;100350.03;6173789;23;20016;-72
2023/07/31 08:41:38;;;;;;;7.30;5.65;;;;;;;18.33;100.00;100343.72;6200471;23;20098;-73
2023/07/31 08:44:04;;;;;;;6.10;5.70;;;;;;;18.41;100.00;100328.91;6201921;23;20028;-73
2023/07/31 08:46:32;;;;;;;6.00;5.50;;;;;;;17.79;100.00;100230.84;6200940;23;20019;-72
2023/07/31 08:49:00;;;;;;;6.32;5.75;;;;;;;17.99;100.00;100255.63;6201229;23;20053;-72
2023/07/31 08:51:26;;;;;;;6.32;5.82;;;;;;;18.38;100.00;100323.84;6175647;23;20030;-72
2023/07/31 08:53:53;;;;;;;6.20;5.80;;;;;;;18.20;100.00;100283.88;6181848;23;20028;-72
2023/07/31 08:56:20;;;;;;;6.43;5.95;;;;;;;18.18;100.00;100249.50;6175048;23;20025;-72
2023/07/31 08:58:47;;;;;;;6.10;5.70;;;;;;;18.48;100.00;100291.00;6201570;23;20076;-72
2023/07/31 09:01:15;;;;;;;6.38;5.97;;;;;;;18.21;100.00;100265.13;6195877;23;20098;-71
2023/07/31 09:03:43;;;;;;;7.53;6.00;;;;;;;18.23;100.00;100311.00;6175975;23;20024;-70
2023/07/31 09:06:12;;;;;;;6.43;6.00;;;;;;;18.25;100.00;100338.25;6195733;23;20040;-71
2023/07/31 09:08:42;;;;;;;6.32;5.93;;;;;;;18.19;100.00;100352.09;6198734;23;20770;-71
2023/07/31 09:11:08;;;;;;;6.15;5.75;;;;;;;17.93;100.00;100326.06;6199149;23;20024;-71
2023/07/31 09:13:35;;;;;;;6.72;6.13;;;;;;;17.74;100.00;100320.69;6200612;23;20028;-72
2023/07/31 09:16:01;;;;;;;6.00;5.60;;;;;;;17.47;100.00;100302.72;6195268;23;20081;-71
2023/07/31 09:18:28;;;;;;;6.20;5.80;;;;;;;17.47;100.00;100314.16;6192907;23;20033;-71
2023/07/31 09:21:05;;;;;;;7.63;5.90;;;;;;;18.02;100.00;100385.47;6190499;23;20026;-70
2023/07/31 09:23:45;;;;;;;5.97;5.57;;;;;;;18.10;100.00;100360.88;6177164;23;20052;-71
2023/07/31 09:26:37;;;;;;;6.30;5.70;;;;;;;18.20;100.00;100352.94;6200108;23;20077;-70
2023/07/31 09:29:07;;;;;;;6.10;5.75;;;;;;;18.43;100.00;100335.75;6140365;23;20020;-69
2023/07/31 09:31:44;;;;;;;6.55;5.82;;;;;;;18.56;100.00;100316.84;6176964;23;20021;-70
2023/07/31 09:34:11;;;;;;;6.35;5.95;;;;;;;18.87;100.00;100314.88;6182723;23;20021;-69
2023/07/31 09:36:46;;;;;;;6.05;5.53;;;;;;;18.90;100.00;100293.34;6202041;23;20011;-70
2023/07/31 09:39:15;;;;;;;6.32;5.82;;;;;;;18.85;100.00;100252.22;6167678;23;20084;-70
2023/07/31 09:41:54;;;;;;;5.95;5.65;;;;;;;19.03;100.00;100255.78;6170031;23;20021;-69
2023/07/31 09:44:21;;;;;;;6.13;5.63;;;;;;;19.03;100.00;100252.28;6170567;23;20023;-69
2023/07/31 09:46:47;;;;;;;6.53;5.90;;;;;;;19.07;100.00;100251.84;6200760;23;20043;-69
2023/07/31 09:49:14;;;;;;;7.13;6.22;;;;;;;18.59;100.00;100194.34;6196266;23;20038;-71
2023/07/31 09:51:42;;;;;;;6.35;5.75;;;;;;;19.07;100.00;100273.13;6199741;23;20038;-70
2023/07/31 09:54:11;;;;;;;5.97;5.60;;;;;;;18.64;100.00;100170.81;6195453;23;20034;-71
2023/07/31 09:56:45;;;;;;;6.70;6.20;;;;;;;19.27;100.00;100273.88;6174139;23;20099;-71
2023/07/31 09:59:17;;;;;;;6.70;6.20;;;;;;;18.99;100.00;100177.28;6197296;23;20028;-71
2023/07/31 10:01:49;;;;;;;6.15;5.72;;;;;;;19.27;100.00;100182.59;6199346;23;20020;-71
2023/07/31 10:04:20;;;;;;;6.40;6.00;;;;;;;19.10;100.00;100173.56;6195919;23;20043;-70
2023/07/31 10:06:50;;;;;;;6.13;5.72;;;;;;;19.58;100.00;100251.47;6181011;23;20081;-70
2023/07/31 10:09:18;;;;;;;6.55;6.10;;;;;;;19.33;100.00;100193.47;6197348;23;20463;-70
2023/07/31 10:11:55;;;;;;;7.15;6.50;;;;;;;19.47;100.00;100258.66;6195306;23;20047;-70
2023/07/31 10:14:25;;;;;;;6.72;6.22;;;;;;;19.27;100.00;100231.31;6193785;23;20046;-70
2023/07/31 10:16:52;;;;;;;6.72;5.95;;;;;;;19.36;100.00;100269.50;6171120;23;20526;-70
2023/07/31 10:19:20;;;;;;;6.80;6.32;;;;;;;19.33;100.00;100267.97;6189339;23;20633;-70
2023/07/31 10:21:48;;;;;;;6.25;5.72;;;;;;;19.63;100.00;100271.31;6181091;23;20269;-70
2023/07/31 10:24:16;;;;;;;6.20;5.80;;;;;;;19.50;100.00;100254.88;6165839;23;20040;-70
2023/07/31 10:26:45;;;;;;;6.40;5.80;;;;;;;19.71;100.00;100249.31;6202338;23;20100;-70
2023/07/31 10:29:13;;;;;;;6.63;6.10;;;;;;;19.69;100.00;100230.78;6165296;23;20008;-70
2023/07/31 10:31:40;;;;;;;6.15;5.75;;;;;;;19.97;100.00;100228.09;6196735;23;20023;-70
2023/07/31 10:34:07;;;;;;;6.45;5.95;;;;;;;20.23;100.00;100228.16;6201318;23;20028;-70
2023/07/31 10:36:33;;;;;;;6.22;5.82;;;;;;;19.93;99.89;100121.03;6194586;23;21293;-70
2023/07/31 10:39:04;;;;;;;6.10;5.70;;;;;;;20.09;99.06;100162.94;6167489;23;20024;-70
2023/07/31 10:41:31;;;;;;;6.03;5.68;;;;;;;20.03;100.00;100197.34;6199243;23;20014;-69
2023/07/31 10:43:59;;;;;;;6.03;5.72;;;;;;;20.12;97.25;100120.00;6195208;23;20032;-70
2023/07/31 10:46:28;;;;;;;6.10;5.70;;;;;;;20.39;95.27;100136.00;6193631;23;20620;-71
2023/07/31 10:49:00;;;;;;;6.35;5.95;;;;;;;20.25;93.19;100098.28;6172124;23;20069;-69
2023/07/31 10:51:37;;;;;;;7.13;6.00;;;;;;;20.33;96.00;100132.97;6166411;23;20623;-70
2023/07/31 10:54:18;;;;;;;6.13;5.72;;;;;;;20.76;95.32;100154.38;6196139;23;20616;-70
2023/07/31 10:56:46;;;;;;;6.00;5.68;;;;;;;20.61;93.54;100084.81;6199215;23;20024;-71
2023/07/31 10:59:13;;;;;;;6.10;5.70;;;;;;;20.53;92.06;100064.25;6167027;23;20249;-70
2023/07/31 11:01:58;;;;;;;5.88;5.53;;;;;;;20.97;91.53;100092.63;6199791;23;20740;-69
2023/07/31 11:04:26;;;;;;;6.00;5.70;;;;;;;20.63;89.56;100042.84;6139322;23;20091;-70
2023/07/31 11:06:58;;;;;;;6.00;5.70;;;;;;;20.78;89.73;100066.22;6188451;23;20051;-70
2023/07/31 11:09:29;;;;;;;5.97;5.60;;;;;;;20.97;86.32;100009.06;6198284;23;20092;-69
2023/07/31 11:11:56;;;;;;;6.10;5.60;;;;;;;20.62;86.71;99913.19;6170521;23;20408;-70
2023/07/31 11:14:23;;;;;;;5.95;5.57;;;;;;;21.22;84.96;99993.94;6200108;23;20091;-69
2023/07/31 11:16:51;;;;;;;5.75;5.45;;;;;;;21.57;84.22;100016.81;6195784;23;20034;-69
2023/07/31 11:19:25;;;;;;;6.00;5.63;;;;;;;21.59;81.84;99957.88;6172292;23;20543;-71